createdAt,value
2019-04-05T00:01:14.497Z,7.76
2019-04-05T00:03:45.662Z,7.71
2019-04-05T00:06:16.147Z,7.69
2019-04-05T00:08:47.479Z,7.61
2019-04-05T00:11:18.877Z,7.62
2019-04-05T00:13:49.358Z,7.70
2019-04-05T00:16:20.076Z,7.75
2019-04-05T00:18:50.511Z,7.77
2019-04-05T00:21:20.989Z,7.78
2019-04-05T00:23:51.719Z,7.79
2019-04-05T00:26:22.144Z,7.71
2019-04-05T00:28:53.015Z,7.75
2019-04-05T00:31:23.511Z,7.66
2019-04-05T00:33:53.941Z,7.73
2019-04-05T00:36:24.422Z,7.64
2019-04-05T00:38:54.856Z,7.68
2019-04-05T00:41:25.294Z,7.68
2019-04-05T00:43:55.784Z,7.68
2019-04-05T00:46:26.226Z,7.77
2019-04-05T00:48:56.667Z,7.66
2019-04-05T00:51:27.494Z,7.71
2019-04-05T00:53:58.238Z,7.70
2019-04-05T00:56:29.016Z,7.60
2019-04-05T00:58:59.878Z,7.60
2019-04-05T01:01:30.414Z,7.56
2019-04-05T01:04:00.874Z,7.57
2019-04-05T01:06:31.470Z,7.64
2019-04-05T01:09:01.916Z,7.62
2019-04-05T01:11:32.794Z,7.56
2019-04-05T01:14:03.706Z,7.52
2019-04-05T01:16:44.905Z,7.57
2019-04-05T01:19:15.861Z,7.59
2019-04-05T01:21:48.799Z,7.61
2019-04-05T01:24:20.967Z,7.59
2019-04-05T01:26:53.669Z,7.52
2019-04-05T01:29:25.022Z,7.55
2019-04-05T01:31:55.543Z,7.51
2019-04-05T01:34:26.342Z,7.55
2019-04-05T01:36:57.276Z,7.55
2019-04-05T01:39:27.884Z,7.54
2019-04-05T01:41:58.780Z,7.55
2019-04-05T01:44:29.215Z,7.48
2019-04-05T01:46:59.989Z,7.50
2019-04-05T01:49:30.483Z,7.49
2019-04-05T01:52:01.029Z,7.46
2019-04-05T01:54:31.789Z,7.48
2019-04-05T01:57:02.740Z,7.50
2019-04-05T01:59:34.669Z,7.47
2019-04-05T02:02:05.741Z,7.46
2019-04-05T02:04:36.346Z,7.55
2019-04-05T02:07:06.788Z,7.59
2019-04-05T02:09:37.718Z,7.48
2019-04-05T02:12:08.468Z,7.48
2019-04-05T02:14:38.906Z,7.44
2019-04-05T02:17:10.378Z,7.47
2019-04-05T02:19:40.988Z,7.55
2019-04-05T02:22:11.421Z,7.48
2019-04-05T02:24:41.933Z,7.49
2019-04-05T02:27:13.368Z,7.41
2019-04-05T02:29:44.535Z,7.47
2019-04-05T02:32:14.970Z,7.50
2019-04-05T02:34:45.770Z,7.43
2019-04-05T02:37:16.759Z,7.39
2019-04-05T02:39:47.519Z,7.40
2019-04-05T02:42:19.374Z,7.36
2019-04-05T02:44:51.986Z,7.38
2019-04-05T02:47:23.861Z,7.29
2019-04-05T02:49:57.548Z,7.35
2019-04-05T02:52:30.388Z,7.32
2019-04-05T02:55:01.574Z,7.35
2019-04-05T02:57:33.228Z,7.36
2019-04-05T03:00:04.542Z,7.28
2019-04-05T03:02:36.687Z,7.25
2019-04-05T03:05:07.210Z,7.31
2019-04-05T03:07:37.805Z,7.32
2019-04-05T03:10:08.604Z,7.25
2019-04-05T03:12:39.338Z,7.27
2019-04-05T03:15:11.689Z,7.33
2019-04-05T03:17:42.279Z,7.36
2019-04-05T03:20:12.812Z,7.33
2019-04-05T03:22:43.661Z,7.32
2019-04-05T03:25:14.334Z,7.28
2019-04-05T03:27:44.874Z,7.27
2019-04-05T03:30:15.425Z,7.22
2019-04-05T03:32:46.607Z,7.25
2019-04-05T03:35:17.536Z,7.24
2019-04-05T03:37:48.191Z,7.26
2019-04-05T03:40:18.872Z,7.29
2019-04-05T03:42:49.512Z,7.30
2019-04-05T03:45:20.825Z,7.30
2019-04-05T03:47:51.609Z,7.34
2019-04-05T03:50:22.046Z,7.31
2019-04-05T03:52:52.591Z,7.28
2019-04-05T03:55:23.711Z,7.20
2019-04-05T03:57:54.147Z,7.18
2019-04-05T04:00:24.851Z,7.15
2019-04-05T04:02:55.467Z,7.17
2019-04-05T04:05:26.111Z,7.18
2019-04-05T04:07:56.655Z,7.23
2019-04-05T04:10:28.460Z,7.22
2019-04-05T04:12:59.338Z,7.16
2019-04-05T04:15:32.088Z,7.18
2019-04-05T04:18:03.579Z,7.10
2019-04-05T04:20:42.349Z,7.09
2019-04-05T04:23:14.035Z,7.16
2019-04-05T04:25:45.375Z,7.07
2019-04-05T04:28:16.309Z,7.03
2019-04-05T04:30:47.018Z,7.09
2019-04-05T04:33:19.629Z,7.07
2019-04-05T04:35:50.770Z,7.18
2019-04-05T04:38:22.136Z,7.16
2019-04-05T04:40:52.781Z,7.12
2019-04-05T04:43:23.724Z,7.16
2019-04-05T04:45:54.934Z,7.16
2019-04-05T04:48:25.387Z,7.16
2019-04-05T04:50:55.932Z,7.20
2019-04-05T04:53:27.043Z,7.14
2019-04-05T04:55:57.967Z,7.13
2019-04-05T04:58:28.505Z,7.16
2019-04-05T05:00:59.301Z,7.08
2019-04-05T05:03:30.258Z,7.11
2019-04-05T05:06:01.377Z,7.10
2019-04-05T05:08:32.087Z,7.05
2019-04-05T05:11:14.011Z,7.13
2019-04-05T05:13:35.277Z,7.07
2019-04-05T05:16:06.963Z,6.96
2019-04-05T05:18:37.797Z,7.00
2019-04-05T05:21:08.233Z,7.04
2019-04-05T05:23:39.621Z,7.02
2019-04-05T05:26:10.690Z,7.00
2019-04-05T05:28:41.234Z,7.03
2019-04-05T05:31:12.086Z,7.00
2019-04-05T05:33:42.715Z,6.98
2019-04-05T05:36:13.405Z,7.00
2019-04-05T05:38:44.657Z,6.98
2019-04-05T05:41:15.097Z,6.99
2019-04-05T05:43:45.823Z,7.02
2019-04-05T05:46:16.325Z,7.04
2019-04-05T05:48:46.868Z,7.09
2019-04-05T05:51:17.296Z,7.12
2019-04-05T05:53:47.947Z,7.15
2019-04-05T05:56:19.278Z,7.16
2019-04-05T05:58:49.713Z,7.21
2019-04-05T06:01:20.190Z,7.21
2019-04-05T06:03:50.641Z,7.18
2019-04-05T06:06:21.106Z,7.22
2019-04-05T06:08:51.828Z,7.25
2019-04-05T06:11:22.656Z,7.22
2019-04-05T06:13:53.090Z,7.20
2019-04-05T06:16:23.565Z,7.20
2019-04-05T06:18:53.996Z,7.16
2019-04-05T06:21:24.428Z,7.19
2019-04-05T06:23:54.921Z,7.30
2019-04-05T06:26:25.358Z,7.32
2019-04-05T06:28:55.790Z,7.27
2019-04-05T06:31:26.273Z,7.30
2019-04-05T06:33:56.712Z,7.30
2019-04-05T06:36:27.156Z,7.34
2019-04-05T06:38:57.642Z,7.29
2019-04-05T06:41:28.072Z,7.22
2019-04-05T06:43:58.859Z,7.31
2019-04-05T06:46:29.700Z,7.28
2019-04-05T06:49:00.133Z,7.24
2019-04-05T06:51:30.568Z,7.22
2019-04-05T06:54:03.359Z,7.25
2019-04-05T06:56:33.526Z,7.27
2019-04-05T06:59:04.447Z,7.24
2019-04-05T07:01:34.999Z,7.19
2019-04-05T07:04:05.701Z,7.28
2019-04-05T07:06:36.166Z,7.28
2019-04-05T07:09:08.035Z,7.22
2019-04-05T07:11:38.625Z,7.14
2019-04-05T07:14:10.036Z,7.21
2019-04-05T07:16:40.864Z,7.22
2019-04-05T07:19:11.298Z,7.19
2019-04-05T07:21:41.738Z,7.18
2019-04-05T07:24:12.216Z,7.20
2019-04-05T07:26:42.649Z,7.17
2019-04-05T07:29:13.086Z,7.20
2019-04-05T07:31:43.568Z,7.25
2019-04-05T07:34:14.001Z,7.25
2019-04-05T07:36:44.749Z,7.26
2019-04-05T07:39:15.221Z,7.23
2019-04-05T07:41:45.657Z,7.24
2019-04-05T07:44:16.096Z,7.23
2019-04-05T07:46:46.822Z,7.26
2019-04-05T07:49:17.298Z,7.24
2019-04-05T07:51:47.732Z,7.27
2019-04-05T07:54:18.204Z,7.29
2019-04-05T07:56:48.636Z,7.29
2019-04-05T07:59:20.908Z,7.27
2019-04-05T08:01:51.325Z,7.23
2019-04-05T08:04:21.765Z,7.29
2019-04-05T08:06:52.398Z,7.36
2019-04-05T08:09:24.444Z,7.41
2019-04-05T08:11:55.785Z,7.50
2019-04-05T08:14:26.961Z,7.57
2019-04-05T08:16:57.440Z,7.56
2019-04-05T08:19:27.891Z,7.56
2019-04-05T08:21:58.342Z,7.60
2019-04-05T08:24:29.102Z,7.62
2019-04-05T08:26:59.921Z,7.58
2019-04-05T08:29:30.824Z,7.57
2019-04-05T08:32:13.634Z,7.60
2019-04-05T08:34:34.958Z,7.65
2019-04-05T08:37:05.464Z,7.73
2019-04-05T08:39:36.303Z,7.64
2019-04-05T08:42:06.883Z,7.73
2019-04-05T08:44:37.368Z,7.72
2019-04-05T08:47:08.310Z,7.67
2019-04-05T08:49:39.828Z,7.81
2019-04-05T08:52:10.293Z,7.82
2019-04-05T08:54:40.796Z,7.84
2019-04-05T08:57:11.235Z,7.92
2019-04-05T08:59:41.677Z,7.89
2019-04-05T09:02:12.218Z,7.88
2019-04-05T09:04:43.761Z,7.91
2019-04-05T09:07:14.203Z,7.88
2019-04-05T09:09:44.714Z,7.81
2019-04-05T09:12:15.183Z,7.78
2019-04-05T09:14:45.613Z,7.83
2019-04-05T09:17:16.461Z,7.88
2019-04-05T09:19:46.918Z,7.88
2019-04-05T09:22:17.357Z,7.98
2019-04-05T09:24:47.844Z,8.04
2019-04-05T09:27:18.589Z,8.04
2019-04-05T09:29:49.021Z,8.00
2019-04-05T09:32:19.540Z,8.01
2019-04-05T09:34:49.943Z,8.07
2019-04-05T09:37:20.739Z,8.04
2019-04-05T09:39:51.504Z,8.06
2019-04-05T09:42:21.935Z,8.10
2019-04-05T09:44:52.662Z,8.10
2019-04-05T09:47:23.675Z,8.08
2019-04-05T09:49:54.107Z,8.18
2019-04-05T09:52:24.537Z,8.27
2019-04-05T09:54:55.018Z,8.29
2019-04-05T09:57:26.135Z,8.13
2019-04-05T09:59:58.130Z,8.15
2019-04-05T10:02:31.666Z,8.14
2019-04-05T10:05:01.252Z,8.08
2019-04-05T10:07:33.553Z,8.16
2019-04-05T10:10:04.260Z,8.06
2019-04-05T10:12:34.761Z,8.13
2019-04-05T10:15:05.865Z,8.17
2019-04-05T10:17:36.306Z,8.10
2019-04-05T10:20:07.917Z,8.11
2019-04-05T10:22:38.407Z,8.15
2019-04-05T10:25:08.886Z,8.18
2019-04-05T10:27:39.426Z,8.24
2019-04-05T10:30:12.164Z,8.30
2019-04-05T10:32:46.050Z,8.42
2019-04-05T10:35:16.643Z,8.39
2019-04-05T10:37:47.442Z,8.39
2019-04-05T10:40:18.581Z,8.34
2019-04-05T10:42:49.073Z,8.30
2019-04-05T10:45:19.617Z,8.40
2019-04-05T10:47:50.058Z,8.39
2019-04-05T10:50:20.755Z,8.42
2019-04-05T10:52:51.200Z,8.37
2019-04-05T10:55:21.800Z,8.29
2019-04-05T10:57:53.786Z,8.25
2019-04-05T11:00:26.190Z,8.34
2019-04-05T11:02:56.664Z,8.33
2019-04-05T11:05:27.148Z,8.35
2019-04-05T11:07:57.591Z,8.30
2019-04-05T11:10:28.035Z,8.30
2019-04-05T11:12:58.569Z,8.34
2019-04-05T11:15:31.019Z,8.29
2019-04-05T11:18:04.417Z,8.32
2019-04-05T11:20:33.690Z,8.29
2019-04-05T11:23:04.222Z,8.29
2019-04-05T11:25:35.018Z,8.29
2019-04-05T11:28:05.595Z,8.37
2019-04-05T11:30:44.728Z,8.37
2019-04-05T11:33:15.346Z,8.35
2019-04-05T11:35:46.096Z,8.43
2019-04-05T11:38:16.684Z,8.43
2019-04-05T11:40:47.847Z,8.45
2019-04-05T11:43:19.858Z,8.44
2019-04-05T11:45:51.595Z,8.43
2019-04-05T11:48:22.469Z,8.43
2019-04-05T11:50:53.241Z,8.45
2019-04-05T11:53:25.759Z,8.48
2019-04-05T11:55:56.274Z,8.36
2019-04-05T11:58:26.716Z,8.45
2019-04-05T12:01:14.229Z,8.48
2019-04-05T12:03:44.666Z,8.48
2019-04-05T12:06:15.572Z,8.52
2019-04-05T12:08:46.241Z,8.52
2019-04-05T12:11:17.109Z,8.59
2019-04-05T12:13:47.849Z,8.60
2019-04-05T12:16:18.357Z,8.65
2019-04-05T12:18:50.216Z,8.67
2019-04-05T12:21:21.158Z,8.64
2019-04-05T12:23:51.719Z,8.73
2019-04-05T12:26:22.485Z,8.76
2019-04-05T12:28:53.317Z,8.80
2019-04-05T12:31:25.741Z,8.95
2019-04-05T12:33:56.270Z,9.01
2019-04-05T12:36:26.717Z,9.06
2019-04-05T12:38:57.243Z,9.08
2019-04-05T12:41:28.650Z,9.20
2019-04-05T12:44:00.154Z,9.27
2019-04-05T12:46:30.707Z,9.27
2019-04-05T12:49:01.521Z,9.23
2019-04-05T12:51:32.041Z,9.28
2019-04-05T12:54:03.192Z,9.31
2019-04-05T12:56:33.719Z,9.30
2019-04-05T12:59:05.609Z,9.33
2019-04-05T13:01:36.165Z,9.31
2019-04-05T13:04:06.645Z,9.28
2019-04-05T13:06:42.136Z,9.26
2019-04-05T13:09:13.934Z,9.33
2019-04-05T13:11:45.617Z,9.32
2019-04-05T13:14:17.167Z,9.35
2019-04-05T13:16:49.486Z,9.24
2019-04-05T13:19:20.192Z,9.15
2019-04-05T13:21:50.633Z,9.18
2019-04-05T13:24:21.473Z,9.27
2019-04-05T13:26:51.926Z,9.31
2019-04-05T13:29:22.365Z,9.38
2019-04-05T13:31:52.852Z,9.40
2019-04-05T13:34:25.593Z,9.45
2019-04-05T13:36:55.443Z,9.58
2019-04-05T13:39:27.546Z,9.63
2019-04-05T13:41:59.459Z,9.70
2019-04-05T13:44:31.912Z,9.69
2019-04-05T13:47:03.007Z,9.68
2019-04-05T13:49:33.473Z,9.75
2019-04-05T13:52:06.536Z,9.76
2019-04-05T13:54:38.347Z,9.70
2019-04-05T13:57:11.410Z,9.66
2019-04-05T13:59:41.369Z,9.75
2019-04-05T14:02:11.817Z,9.75
2019-04-05T14:04:42.737Z,9.82
2019-04-05T14:07:13.206Z,9.71
2019-04-05T14:09:44.044Z,9.66
2019-04-05T14:12:14.525Z,9.72
2019-04-05T14:14:48.021Z,9.83
2019-04-05T14:17:17.264Z,9.96
2019-04-05T14:19:48.753Z,10.02
2019-04-05T14:22:22.251Z,10.20
2019-04-05T14:24:56.576Z,10.14
2019-04-05T14:27:25.024Z,10.28
2019-04-05T14:29:55.467Z,10.31
2019-04-05T14:32:25.981Z,10.25
2019-04-05T14:34:56.714Z,10.25
2019-04-05T14:37:27.169Z,10.15
2019-04-05T14:39:57.683Z,10.23
2019-04-05T14:42:29.702Z,10.20
2019-04-05T14:45:01.167Z,10.17
2019-04-05T14:47:31.608Z,10.05
2019-04-05T14:50:02.059Z,10.03
2019-04-05T14:52:32.578Z,10.13
2019-04-05T14:55:03.830Z,10.04
2019-04-05T14:57:35.630Z,9.97
2019-04-05T15:00:07.823Z,9.99
2019-04-05T15:02:38.394Z,9.91
2019-04-05T15:05:10.174Z,9.81
2019-04-05T15:07:41.032Z,9.72
2019-04-05T15:10:11.675Z,9.77
2019-04-05T15:12:42.113Z,9.83
2019-04-05T15:15:13.798Z,9.85
2019-04-05T15:17:48.132Z,9.81
2019-04-05T15:20:17.225Z,9.81
2019-04-05T15:22:48.839Z,9.79
2019-04-05T15:25:21.615Z,9.80
2019-04-05T15:27:55.387Z,9.81
2019-04-05T15:30:26.523Z,9.82
2019-04-05T15:32:58.853Z,9.84
2019-04-05T15:35:31.095Z,9.76
2019-04-05T15:38:02.349Z,9.74
2019-04-05T15:40:32.759Z,9.73
2019-04-05T15:43:03.628Z,9.76
2019-04-05T15:45:34.176Z,9.74
2019-04-05T15:48:05.037Z,9.80
2019-04-05T15:50:35.552Z,9.88
2019-04-05T15:53:06.873Z,9.89
2019-04-05T15:55:37.362Z,9.87
2019-04-05T15:58:08.234Z,9.89
2019-04-05T16:00:43.816Z,9.84
2019-04-05T16:03:15.001Z,9.81
2019-04-05T16:05:47.207Z,9.80
2019-04-05T16:08:19.820Z,9.80
2019-04-05T16:10:50.741Z,9.88
2019-04-05T16:13:21.293Z,9.89
2019-04-05T16:15:51.798Z,9.82
2019-04-05T16:18:22.334Z,9.80
2019-04-05T16:20:52.786Z,9.75
2019-04-05T16:23:23.564Z,9.68
2019-04-05T16:25:54.114Z,9.70
2019-04-05T16:28:24.579Z,9.69
2019-04-05T16:30:55.077Z,9.71
2019-04-05T16:33:25.808Z,9.70
2019-04-05T16:35:56.265Z,9.65
2019-04-05T16:38:26.749Z,9.71
2019-04-05T16:40:57.185Z,9.68
2019-04-05T16:43:27.635Z,9.71
2019-04-05T16:45:58.118Z,9.66
2019-04-05T16:48:28.654Z,9.65
2019-04-05T16:50:59.092Z,9.64
2019-04-05T16:53:30.243Z,9.59
2019-04-05T16:56:01.075Z,9.65
2019-04-05T16:58:31.513Z,9.66
2019-04-05T17:01:02.167Z,9.64
2019-04-05T17:03:33.638Z,9.64
2019-04-05T17:06:04.082Z,9.54
2019-04-05T17:08:34.586Z,9.49
2019-04-05T17:11:05.266Z,9.44
2019-04-05T17:13:36.026Z,9.51
2019-04-05T17:16:06.912Z,9.46
2019-04-05T17:18:37.355Z,9.44
2019-04-05T17:21:07.799Z,9.43
2019-04-05T17:23:38.278Z,9.45
2019-04-05T17:26:08.725Z,9.47
2019-04-05T17:28:39.602Z,9.44
2019-04-05T17:31:10.093Z,9.46
2019-04-05T17:33:40.945Z,9.53
2019-04-05T17:36:11.410Z,9.51
2019-04-05T17:38:42.008Z,9.46
2019-04-05T17:41:12.745Z,9.40
2019-04-05T17:43:43.555Z,9.40
2019-04-05T17:46:14.197Z,9.44
2019-04-05T17:48:44.758Z,9.41
2019-04-05T17:51:15.261Z,9.40
2019-04-05T17:53:46.224Z,9.40
2019-04-05T17:56:17.497Z,9.37
2019-04-05T17:58:49.178Z,9.39
2019-04-05T18:01:21.708Z,9.34
2019-04-05T18:03:52.347Z,9.33
2019-04-05T18:06:23.502Z,9.36
2019-04-05T18:08:53.997Z,9.35
2019-04-05T18:11:25.385Z,9.33
2019-04-05T18:13:57.953Z,9.30
2019-04-05T18:16:29.508Z,9.31
2019-04-05T18:19:01.168Z,9.32
2019-04-05T18:21:31.654Z,9.29
2019-04-05T18:24:02.540Z,9.30
2019-04-05T18:26:34.533Z,9.27
2019-04-05T18:29:05.852Z,9.27
2019-04-05T18:31:36.337Z,9.23
2019-04-05T18:34:09.064Z,9.29
2019-04-05T18:36:39.910Z,9.25
2019-04-05T18:39:11.668Z,9.26
2019-04-05T18:41:43.911Z,9.26
2019-04-05T18:44:16.553Z,9.22
2019-04-05T18:46:48.578Z,9.18
2019-04-05T18:49:19.729Z,9.18
2019-04-05T18:51:50.828Z,9.17
2019-04-05T18:54:22.020Z,9.18
2019-04-05T18:56:52.561Z,9.21
2019-04-05T18:59:23.376Z,9.20
2019-04-05T19:01:57.522Z,9.21
2019-04-05T19:04:28.011Z,9.20
2019-04-05T19:06:59.798Z,9.17
2019-04-05T19:09:30.272Z,9.15
2019-04-05T19:12:00.778Z,9.19
2019-04-05T19:14:31.602Z,9.18
2019-04-05T19:17:02.061Z,9.17
2019-04-05T19:19:34.094Z,9.14
2019-04-05T19:22:04.558Z,9.18
2019-04-05T19:24:35.028Z,9.13
2019-04-05T19:27:05.613Z,9.10
2019-04-05T19:29:36.066Z,9.15
2019-04-05T19:50:00.849Z,8.91
2019-04-05T19:52:32.509Z,8.92
2019-04-05T19:55:03.344Z,8.86
2019-04-05T19:57:33.786Z,8.82
2019-04-05T20:00:05.028Z,8.80
2019-04-05T20:02:35.865Z,8.83
2019-04-05T20:05:09.036Z,8.74
2019-04-05T20:07:40.195Z,8.74
2019-04-05T20:10:11.205Z,8.72
2019-04-05T20:12:41.668Z,8.66
2019-04-05T20:15:12.233Z,8.60
2019-04-05T20:17:43.584Z,8.65
2019-04-05T20:20:14.598Z,8.65
2019-04-05T20:22:45.054Z,8.59
2019-04-05T20:25:15.649Z,8.57
2019-04-05T20:27:46.119Z,8.53
2019-04-05T20:30:18.167Z,8.54
2019-04-05T20:32:49.072Z,8.59
2019-04-05T20:35:20.121Z,8.55
2019-04-05T20:37:50.616Z,8.52
2019-04-05T20:40:21.414Z,8.57
2019-04-05T20:42:52.249Z,8.56
2019-04-05T20:45:22.911Z,8.56
2019-04-05T20:47:53.730Z,8.59
2019-04-05T20:50:24.166Z,8.57
2019-04-05T20:52:57.475Z,8.53
2019-04-05T20:55:28.266Z,8.59
2019-04-05T20:57:58.921Z,8.58
2019-04-05T21:00:29.358Z,8.64
2019-04-05T21:03:00.210Z,8.66
2019-04-05T21:05:30.680Z,8.64
2019-04-05T21:08:01.130Z,8.58
2019-04-05T21:10:31.669Z,8.59
2019-04-05T21:13:02.836Z,8.61
2019-04-05T21:15:33.386Z,8.59
2019-04-05T21:18:03.890Z,8.57
2019-04-05T21:20:34.673Z,8.58
2019-04-05T21:23:05.146Z,8.52
2019-04-05T21:25:36.020Z,8.54
2019-04-05T21:28:06.465Z,8.55
2019-04-05T21:30:37.236Z,8.54
2019-04-05T21:33:07.999Z,8.54
2019-04-05T21:35:38.453Z,8.61
2019-04-05T21:38:08.911Z,8.58
2019-04-05T21:40:39.400Z,8.58
2019-04-05T21:43:10.177Z,8.56
2019-04-05T21:45:40.634Z,8.57
2019-04-05T21:48:11.140Z,8.59
2019-04-05T21:50:41.876Z,8.63
2019-04-05T21:53:12.715Z,8.57
2019-04-05T21:55:43.339Z,8.53
2019-04-05T21:58:14.130Z,8.57
2019-04-05T22:00:50.268Z,8.60
2019-04-05T22:03:20.690Z,8.60
2019-04-05T22:05:51.131Z,8.59
2019-04-05T22:08:21.639Z,8.56
2019-04-05T22:10:52.485Z,8.54
2019-04-05T22:13:22.925Z,8.54
2019-04-05T22:15:53.436Z,8.59
2019-04-05T22:18:24.590Z,8.59
2019-04-05T22:20:55.698Z,8.57
2019-04-05T22:23:26.542Z,8.55
2019-04-05T22:25:56.977Z,8.49
2019-04-05T22:28:28.423Z,8.47
2019-04-05T22:30:59.410Z,8.45
2019-04-05T22:33:29.851Z,8.43
2019-04-05T22:36:00.631Z,8.41
2019-04-05T22:38:31.506Z,8.42
2019-04-05T22:41:02.306Z,8.42
2019-04-05T22:43:32.750Z,8.43
2019-04-05T22:46:03.235Z,8.37
2019-04-05T22:48:34.006Z,8.36
2019-04-05T22:51:04.459Z,8.34
2019-04-05T22:53:34.951Z,8.29
2019-04-05T22:56:05.398Z,8.26
2019-04-05T22:58:35.840Z,8.27
2019-04-05T23:01:06.671Z,8.26
2019-04-05T23:03:37.113Z,8.22
2019-04-05T23:06:07.552Z,8.24
2019-04-05T23:08:38.061Z,8.15
2019-04-05T23:11:08.501Z,8.14
2019-04-05T23:13:39.929Z,8.14
2019-04-05T23:16:10.430Z,8.12
2019-04-05T23:18:41.213Z,8.22
2019-04-05T23:21:12.286Z,8.13
2019-04-05T23:23:43.656Z,8.07
2019-04-05T23:26:14.104Z,8.11
2019-04-05T23:28:44.539Z,8.08
2019-04-05T23:31:15.034Z,8.01
2019-04-05T23:33:45.504Z,8.00
2019-04-05T23:36:15.942Z,8.01
2019-04-05T23:38:46.421Z,7.97
2019-04-05T23:41:16.861Z,7.98
2019-04-05T23:43:47.299Z,7.95
2019-04-05T23:46:17.794Z,7.90
2019-04-05T23:48:48.237Z,7.89
2019-04-05T23:51:18.752Z,7.85
2019-04-05T23:53:49.244Z,7.80
2019-04-05T23:56:19.694Z,7.81
2019-04-05T23:58:50.754Z,7.75
